Main page
METAR-TAF:

METAR-TAF

Airports :

Shiraz International Airport

Shiraz, Iran

latitude: 29-32N, longitude: 052-35E, elevation: 1486 m

Current weather observation

The report was made 33 minutes ago, at 21:30 UTC
Calm wind
Temperature 28°C
Humidity 19%
Pressure 1008 hPa
Visibility 10 km or more
no clouds below 1500 m and no cumulonimbus

METAR: OISS 132130Z 00000KT CAVOK 28/02 Q1008 A2978

Time: 02:33 (22:03 UTC)

Forecast

The report was made 4 hours and 33 minutes ago, at 17:30 UTC
Forecast valid from 13 at 18 UTC to 14 at 24 UTC
Wind 8 kt from the West/Northwest
Visibility: 7000 m
Few clouds at a height of 3500 ft
Temporary
from 14 at 13 UTC to 14 at 17 UTC
Few clouds at a height of 3500 ft, Cumulonimbus.
Scattered clouds at a height of 4000 ft

TAF: OISS 131730Z 1318/1424 30008KT 7000 FEW035 TEMPO 1413/1417 FEW035CB SCT040

Weather observations and forecasts of more than 4000 airports (METAR and TAF reports).

The available stations are represented by yellow and red dots on the map.

Hover mouse over dot to see the name of the station.

Then click to see weather observations and forecasts.

To change the map : click on the green buttons with a black cross to zoom in, on the green button with a dash to zoom out, or on the green arrows for adjacent maps.


METAR-TAF: